createdAt,value
2018-05-02T00:01:24.954Z,69.70
2018-05-02T00:03:52.982Z,68.30
2018-05-02T00:06:21.040Z,70.00
2018-05-02T00:08:49.071Z,70.30
2018-05-02T00:11:17.130Z,70.00
2018-05-02T00:13:45.182Z,70.00
2018-05-02T00:16:13.212Z,70.00
2018-05-02T00:18:42.044Z,70.20
2018-05-02T00:21:10.077Z,70.20
2018-05-02T00:23:38.559Z,70.00
2018-05-02T00:26:06.597Z,70.00
2018-05-02T00:28:35.123Z,70.70
2018-05-02T00:31:03.148Z,70.50
2018-05-02T00:33:31.948Z,72.20
2018-05-02T00:35:59.993Z,71.70
2018-05-02T00:38:28.028Z,72.70
2018-05-02T00:40:56.858Z,75.40
2018-05-02T00:43:24.859Z,75.30
2018-05-02T00:45:52.855Z,75.00
2018-05-02T00:48:20.844Z,75.00
2018-05-02T00:50:48.874Z,74.20
2018-05-02T00:53:16.881Z,76.20
2018-05-02T00:55:44.871Z,78.30
2018-05-02T00:58:12.870Z,78.00
2018-05-02T01:00:40.870Z,78.50
2018-05-02T01:03:10.077Z,78.90
2018-05-02T01:05:38.074Z,78.80
2018-05-02T01:08:06.828Z,78.80
2018-05-02T01:10:34.836Z,78.80
2018-05-02T01:13:02.830Z,78.70
2018-05-02T01:15:31.595Z,79.70
2018-05-02T01:17:59.603Z,79.60
2018-05-02T01:20:28.379Z,78.80
2018-05-02T01:22:56.374Z,79.30
2018-05-02T01:25:24.864Z,78.80
2018-05-02T01:27:53.666Z,77.80
2018-05-02T01:30:21.675Z,77.70
2018-05-02T01:32:50.428Z,78.80
2018-05-02T01:35:18.421Z,78.70
2018-05-02T01:37:46.411Z,78.80
2018-05-02T01:40:14.411Z,78.80
2018-05-02T01:42:42.423Z,77.50
2018-05-02T01:45:10.410Z,77.90
2018-05-02T01:47:38.411Z,78.50
2018-05-02T01:50:06.391Z,78.50
2018-05-02T01:52:34.443Z,76.80
2018-05-02T01:55:03.208Z,76.80
2018-05-02T01:57:31.229Z,76.70
2018-05-02T01:59:59.999Z,75.00
2018-05-02T02:02:27.987Z,75.00
2018-05-02T02:04:55.990Z,75.10
2018-05-02T02:07:24.927Z,76.80
2018-05-02T02:09:52.923Z,76.70
2018-05-02T02:12:20.967Z,76.10
2018-05-02T02:14:49.734Z,75.80
2018-05-02T02:17:19.246Z,74.80
2018-05-02T02:19:47.230Z,74.80
2018-05-02T02:22:15.227Z,75.00
2018-05-02T02:24:43.218Z,75.20
2018-05-02T02:27:11.987Z,76.60
2018-05-02T02:29:39.983Z,76.50
2018-05-02T02:32:07.979Z,77.90
2018-05-02T02:34:35.982Z,78.50
2018-05-02T02:37:04.726Z,78.70
2018-05-02T02:39:32.726Z,78.50
2018-05-02T02:42:00.716Z,78.60
2018-05-02T02:44:28.719Z,79.00
2018-05-02T02:46:57.467Z,80.00
2018-05-02T02:49:25.483Z,79.90
2018-05-02T02:51:53.483Z,79.50
2018-05-02T02:54:22.238Z,78.70
2018-05-02T02:56:50.234Z,78.60
2018-05-02T02:59:18.219Z,78.70
2018-05-02T03:01:46.213Z,78.70
2018-05-02T03:04:14.955Z,76.70
2018-05-02T03:06:43.702Z,78.00
2018-05-02T03:09:11.699Z,78.00
2018-05-02T03:11:39.678Z,77.00
2018-05-02T03:14:07.716Z,76.20
2018-05-02T03:16:35.703Z,77.00
2018-05-02T03:19:03.707Z,76.70
2018-05-02T03:21:31.697Z,74.80
2018-05-02T03:23:59.963Z,73.80
2018-05-02T03:26:28.172Z,72.70
2018-05-02T03:28:56.222Z,73.80
2018-05-02T03:31:24.231Z,75.20
2018-05-02T03:33:52.218Z,76.50
2018-05-02T03:36:20.210Z,76.30
2018-05-02T03:38:48.199Z,75.70
2018-05-02T03:41:16.194Z,75.70
2018-05-02T03:43:45.180Z,76.80
2018-05-02T03:46:13.158Z,76.80
2018-05-02T03:48:41.150Z,77.10
2018-05-02T03:51:10.655Z,74.60
2018-05-02T03:53:38.654Z,74.60
2018-05-02T03:56:06.640Z,75.20
2018-05-02T03:58:34.650Z,76.20
2018-05-02T04:04:12.354Z,77.30
2018-05-02T04:06:52.287Z,77.50
2018-05-02T04:09:20.287Z,77.70
2018-05-02T04:11:48.283Z,77.30
2018-05-02T04:14:16.567Z,74.00
2018-05-02T04:16:44.554Z,74.20
2018-05-02T04:19:12.538Z,74.80
2018-05-02T04:21:40.543Z,74.90
2018-05-02T04:24:08.526Z,74.90
2018-05-02T04:26:37.524Z,73.70
2018-05-02T04:29:05.667Z,72.80
2018-05-02T04:31:33.671Z,72.20
2018-05-02T04:34:01.656Z,70.60
2018-05-02T04:36:29.660Z,71.10
2018-05-02T04:38:58.453Z,72.90
2018-05-02T04:41:27.948Z,71.90
2018-05-02T04:43:55.938Z,71.90
2018-05-02T04:46:23.951Z,71.80
2018-05-02T04:48:51.955Z,70.60
2018-05-02T04:51:19.939Z,71.00
2018-05-02T04:53:47.935Z,71.40
2018-05-02T04:56:15.926Z,72.30
2018-05-02T04:58:44.696Z,73.20
2018-05-02T05:01:13.458Z,74.50
2018-05-02T05:03:41.446Z,74.30
2018-05-02T05:06:09.459Z,72.60
2018-05-02T05:08:38.206Z,72.20
2018-05-02T05:11:06.206Z,72.20
2018-05-02T05:13:34.217Z,71.20
2018-05-02T05:16:02.971Z,71.10
2018-05-02T05:18:30.983Z,70.70
2018-05-02T05:20:58.970Z,70.90
2018-05-02T05:23:26.976Z,70.40
2018-05-02T05:25:55.267Z,71.30
2018-05-02T05:28:23.259Z,70.90
2018-05-02T05:30:51.359Z,70.90
2018-05-02T05:33:19.314Z,70.90
2018-05-02T05:35:47.326Z,69.40
2018-05-02T05:38:15.326Z,68.20
2018-05-02T05:40:43.439Z,67.30
2018-05-02T05:43:11.449Z,66.80
2018-05-02T05:45:40.198Z,67.70
2018-05-02T05:48:08.191Z,67.60
2018-05-02T05:50:36.187Z,68.80
2018-05-02T05:53:04.195Z,68.80
2018-05-02T05:55:32.951Z,69.10
2018-05-02T05:58:01.039Z,69.00
2018-05-02T06:00:29.048Z,70.90
2018-05-02T06:02:57.054Z,70.90
2018-05-02T06:05:25.069Z,70.40
2018-05-02T06:07:53.068Z,70.20
2018-05-02T06:10:21.082Z,67.90
2018-05-02T06:12:49.082Z,65.80
2018-05-02T06:15:17.863Z,63.70
2018-05-02T06:17:47.340Z,62.60
2018-05-02T06:20:15.343Z,62.60
2018-05-02T06:22:43.349Z,61.30
2018-05-02T06:25:12.103Z,59.90
2018-05-02T06:27:40.108Z,59.80
2018-05-02T06:30:08.096Z,59.80
2018-05-02T06:32:36.486Z,59.00
2018-05-02T06:35:04.467Z,56.10
2018-05-02T06:37:32.529Z,55.40
2018-05-02T06:40:01.255Z,54.90
2018-05-02T06:42:29.255Z,54.80
2018-05-02T06:44:58.051Z,54.80
2018-05-02T06:47:26.056Z,54.70
2018-05-02T06:49:54.814Z,52.80
2018-05-02T06:52:22.819Z,53.70
2018-05-02T06:54:51.575Z,52.00
2018-05-02T06:57:19.574Z,52.00
2018-05-02T06:59:47.563Z,50.60
2018-05-02T07:02:15.563Z,50.60
2018-05-02T07:04:44.339Z,49.60
2018-05-02T07:07:12.392Z,49.60
2018-05-02T07:09:40.322Z,50.20
2018-05-02T07:12:08.323Z,47.90
2018-05-02T07:14:37.106Z,49.50
2018-05-02T07:17:05.108Z,49.40
2018-05-02T07:19:33.879Z,49.80
2018-05-02T07:22:02.078Z,49.70
2018-05-02T07:24:30.055Z,48.80
2018-05-02T07:26:58.070Z,48.50
2018-05-02T07:29:26.846Z,47.50
2018-05-02T07:31:54.839Z,47.40
2018-05-02T07:34:23.614Z,48.60
2018-05-02T07:36:51.620Z,47.90
2018-05-02T07:39:20.382Z,48.30
2018-05-02T07:41:48.377Z,48.20
2018-05-02T07:44:16.380Z,49.50
2018-05-02T07:46:44.379Z,50.70
2018-05-02T07:49:13.248Z,48.10
2018-05-02T07:51:41.276Z,48.10
2018-05-02T07:54:09.257Z,47.00
2018-05-02T07:56:37.305Z,46.90
2018-05-02T07:59:05.299Z,46.90
2018-05-02T08:01:33.304Z,46.60
2018-05-02T08:04:01.325Z,45.90
2018-05-02T08:06:29.311Z,45.40
2018-05-02T08:08:57.331Z,45.90
2018-05-02T08:11:26.096Z,46.50
2018-05-02T08:13:54.107Z,46.10
2018-05-02T08:16:22.097Z,45.70
2018-05-02T08:18:50.885Z,44.50
2018-05-02T08:21:18.875Z,44.50
2018-05-02T08:23:46.882Z,45.50
2018-05-02T08:26:14.996Z,45.20
2018-05-02T08:28:43.226Z,44.20
2018-05-02T08:31:11.215Z,42.50
2018-05-02T08:33:39.221Z,41.80
2018-05-02T08:36:07.239Z,42.90
2018-05-02T08:38:35.251Z,41.80
2018-05-02T08:41:03.239Z,42.80
2018-05-02T08:43:32.737Z,42.40
2018-05-02T08:46:00.751Z,42.40
2018-05-02T08:48:28.773Z,42.00
2018-05-02T08:50:56.810Z,40.40
2018-05-02T08:53:25.596Z,41.50
2018-05-02T08:55:53.599Z,40.70
2018-05-02T08:58:22.378Z,40.70
2018-05-02T09:00:50.462Z,40.10
2018-05-02T09:03:18.516Z,40.30
2018-05-02T09:05:46.527Z,40.40
2018-05-02T09:08:14.525Z,40.60
2018-05-02T09:10:42.527Z,39.90
2018-05-02T09:13:11.287Z,38.20
2018-05-02T09:15:39.361Z,38.10
2018-05-02T09:18:08.079Z,38.20
2018-05-02T09:20:36.072Z,38.20
2018-05-02T09:23:04.074Z,40.40
2018-05-02T09:25:32.843Z,38.40
2018-05-02T09:28:00.866Z,38.40
2018-05-02T09:30:29.627Z,37.80
2018-05-02T09:32:57.647Z,37.70
2018-05-02T09:35:26.435Z,37.50
2018-05-02T09:37:55.202Z,37.50
2018-05-02T09:40:23.211Z,37.40
2018-05-02T09:42:51.215Z,37.50
2018-05-02T09:45:19.991Z,37.10
2018-05-02T09:47:48.027Z,37.10
2018-05-02T09:50:16.023Z,37.00
2018-05-02T09:52:44.035Z,37.40
2018-05-02T09:55:12.026Z,38.00
2018-05-02T09:57:40.039Z,37.20
2018-05-02T10:00:08.047Z,36.10
2018-05-02T10:02:36.041Z,36.50
2018-05-02T10:05:04.051Z,34.90
2018-05-02T10:07:33.542Z,34.90
2018-05-02T10:10:01.558Z,34.80
2018-05-02T10:12:29.637Z,36.20
2018-05-02T10:14:58.327Z,36.40
2018-05-02T10:17:26.338Z,36.30
2018-05-02T10:19:55.101Z,35.10
2018-05-02T10:22:23.106Z,35.00
2018-05-02T10:24:51.110Z,34.90
2018-05-02T10:27:19.883Z,34.40
2018-05-02T10:29:47.878Z,34.10
2018-05-02T10:32:16.666Z,34.20
2018-05-02T10:34:44.659Z,34.20
2018-05-02T10:37:13.766Z,34.60
2018-05-02T10:39:41.770Z,34.60
2018-05-02T10:42:09.771Z,34.70
2018-05-02T10:44:37.782Z,34.80
2018-05-02T10:47:05.783Z,33.30
2018-05-02T10:49:33.795Z,32.40
2018-05-02T10:52:01.919Z,33.40
2018-05-02T10:54:29.940Z,33.00
2018-05-02T10:56:57.939Z,34.40
2018-05-02T10:59:26.719Z,33.30
2018-05-02T11:01:54.755Z,33.20
2018-05-02T11:04:22.771Z,34.70
2018-05-02T11:06:50.784Z,35.40
2018-05-02T11:09:19.550Z,33.10
2018-05-02T11:11:47.545Z,32.90
2018-05-02T11:14:15.639Z,32.00
2018-05-02T11:16:44.317Z,32.10
2018-05-02T11:19:12.339Z,32.10
2018-05-02T11:21:41.107Z,33.90
2018-05-02T11:24:09.127Z,33.80
2018-05-02T11:26:37.891Z,33.10
2018-05-02T11:29:05.895Z,33.00
2018-05-02T11:31:34.671Z,34.10
2018-05-02T11:34:02.667Z,34.30
2018-05-02T11:36:30.680Z,33.40
2018-05-02T11:38:59.459Z,33.70
2018-05-02T11:41:27.462Z,33.50
2018-05-02T11:43:56.250Z,32.90
2018-05-02T11:46:25.018Z,33.90
2018-05-02T11:48:53.031Z,33.90
2018-05-02T11:51:21.799Z,32.40
2018-05-02T11:53:49.798Z,32.40
2018-05-02T11:56:19.318Z,32.70
2018-05-02T11:58:47.318Z,32.50
2018-05-02T12:01:16.106Z,32.90
2018-05-02T12:03:44.099Z,32.90
2018-05-02T12:06:12.888Z,34.30
2018-05-02T12:08:40.875Z,34.20
2018-05-02T12:11:09.111Z,32.40
2018-05-02T12:13:37.115Z,32.60
2018-05-02T12:16:05.114Z,35.10
2018-05-02T12:18:33.119Z,35.00
2018-05-02T12:21:03.315Z,32.50
2018-05-02T12:23:31.333Z,32.50
2018-05-02T12:25:59.358Z,33.00
2018-05-02T12:28:27.355Z,32.50
2018-05-02T12:30:55.375Z,32.60
2018-05-02T12:33:23.395Z,32.90
2018-05-02T12:35:52.659Z,33.60
2018-05-02T12:38:20.654Z,33.60
2018-05-02T12:40:48.711Z,32.90
2018-05-02T12:43:16.689Z,34.10
2018-05-02T12:45:44.687Z,33.60
2018-05-02T12:48:12.706Z,32.40
2018-05-02T12:50:41.459Z,33.20
2018-05-02T12:53:09.478Z,33.40
2018-05-02T12:55:38.438Z,35.10
2018-05-02T12:58:06.467Z,33.60
2018-05-02T13:00:35.246Z,32.00
2018-05-02T13:03:03.242Z,31.50
2018-05-02T13:05:32.758Z,33.40
2018-05-02T13:08:01.427Z,33.40
2018-05-02T13:10:29.480Z,32.00
2018-05-02T13:12:57.499Z,31.80
2018-05-02T13:15:25.506Z,33.70
2018-05-02T13:17:53.535Z,31.20
2018-05-02T13:20:21.556Z,29.50
2018-05-02T13:22:49.589Z,29.90
2018-05-02T13:25:17.619Z,30.90
2018-05-02T13:27:45.610Z,30.00
2018-05-02T13:30:15.138Z,30.60
2018-05-02T13:32:43.134Z,30.40
2018-05-02T13:35:11.927Z,29.80
2018-05-02T13:37:39.926Z,29.80
2018-05-02T13:40:08.707Z,28.60
2018-05-02T13:42:36.726Z,28.50
2018-05-02T13:45:04.723Z,29.30
2018-05-02T13:47:32.734Z,29.60
2018-05-02T13:50:00.734Z,30.00
2018-05-02T13:52:28.754Z,30.60
2018-05-02T13:54:57.543Z,29.70
2018-05-02T13:57:26.311Z,30.20
2018-05-02T13:59:54.326Z,30.30
2018-05-02T14:02:23.092Z,29.10
2018-05-02T14:04:51.122Z,29.00
2018-05-02T14:07:19.147Z,29.70
2018-05-02T14:09:47.159Z,27.90
2018-05-02T14:12:15.166Z,28.50
2018-05-02T14:14:43.937Z,29.30
2018-05-02T14:17:11.934Z,29.30
2018-05-02T14:19:39.942Z,28.30
2018-05-02T14:22:07.937Z,28.80
2018-05-02T14:24:35.954Z,28.60
2018-05-02T14:27:03.959Z,29.00
2018-05-02T14:29:32.033Z,28.70
2018-05-02T14:31:59.996Z,29.20
2018-05-02T14:34:28.000Z,30.70
2018-05-02T14:36:56.015Z,31.00
2018-05-02T14:39:24.031Z,29.40
2018-05-02T14:41:52.028Z,29.20
2018-05-02T14:44:20.043Z,28.60
2018-05-02T14:46:48.043Z,29.10
2018-05-02T14:49:16.058Z,28.70
2018-05-02T14:51:44.054Z,28.60
2018-05-02T14:54:12.066Z,29.10
2018-05-02T14:56:40.067Z,29.70
2018-05-02T14:59:08.835Z,29.20
2018-05-02T15:01:36.871Z,29.00
2018-05-02T15:04:05.638Z,28.40
2018-05-02T15:06:35.159Z,28.90
2018-05-02T15:09:03.163Z,28.80
2018-05-02T15:11:31.935Z,26.90
2018-05-02T15:13:59.938Z,26.90
2018-05-02T15:16:28.707Z,25.60
2018-05-02T15:18:56.750Z,25.50
2018-05-02T15:21:24.754Z,25.60
2018-05-02T15:23:52.766Z,27.10
2018-05-02T15:26:20.758Z,26.40
2018-05-02T15:28:48.758Z,26.80
2018-05-02T15:31:17.535Z,29.10
2018-05-02T15:33:45.531Z,29.00
2018-05-02T15:36:14.314Z,29.00
2018-05-02T15:38:42.583Z,28.90
2018-05-02T15:41:10.578Z,29.20
2018-05-02T15:43:38.594Z,29.70
2018-05-02T15:46:07.371Z,29.70
2018-05-02T15:48:35.380Z,29.70
2018-05-02T15:51:04.138Z,30.20
2018-05-02T15:53:32.155Z,30.10
2018-05-02T15:56:00.927Z,29.90
2018-05-02T15:58:28.991Z,29.90
2018-05-02T16:00:57.731Z,30.40
2018-05-02T16:03:26.498Z,32.20
2018-05-02T16:05:54.535Z,31.40
2018-05-02T16:08:23.323Z,31.70
2018-05-02T16:10:52.088Z,29.60
2018-05-02T16:13:20.094Z,29.60
2018-05-02T16:15:48.098Z,29.20
2018-05-02T16:18:16.879Z,27.90
2018-05-02T16:20:44.882Z,27.70
2018-05-02T16:23:13.643Z,27.60
2018-05-02T16:25:41.643Z,27.50
2018-05-02T16:28:11.146Z,28.20
2018-05-02T16:30:39.158Z,28.20
2018-05-02T16:33:08.019Z,28.90
2018-05-02T16:35:35.946Z,28.90
2018-05-02T16:38:04.706Z,29.50
2018-05-02T16:40:32.733Z,29.50
2018-05-02T16:43:01.511Z,31.10
2018-05-02T16:45:29.512Z,31.10
2018-05-02T16:47:58.304Z,32.10
2018-05-02T16:50:27.427Z,32.00
2018-05-02T16:52:56.210Z,33.10
2018-05-02T16:55:24.990Z,33.90
2018-05-02T16:57:52.994Z,33.50
2018-05-02T17:00:21.787Z,33.80
2018-05-02T17:02:49.779Z,33.70
2018-05-02T17:05:17.775Z,34.00
2018-05-02T17:07:46.549Z,34.90
2018-05-02T17:10:14.576Z,34.80
2018-05-02T17:12:44.315Z,35.40
2018-05-02T17:15:12.332Z,35.40
2018-05-02T17:17:40.326Z,35.40
2018-05-02T17:20:08.347Z,35.10
2018-05-02T17:22:36.346Z,35.80
2018-05-02T17:25:04.350Z,36.20
2018-05-02T17:27:32.374Z,36.20
2018-05-02T17:30:00.420Z,36.40
2018-05-02T17:32:28.411Z,36.60
2018-05-02T17:34:56.550Z,36.90
2018-05-02T17:37:24.639Z,37.30
2018-05-02T17:39:52.637Z,37.10
2018-05-02T17:42:20.644Z,37.30
2018-05-02T17:44:48.661Z,37.20
2018-05-02T17:47:16.675Z,37.80
2018-05-02T17:49:44.667Z,37.60
2018-05-02T17:52:12.680Z,37.10
2018-05-02T17:54:40.683Z,37.00
2018-05-02T17:57:08.728Z,37.30
2018-05-02T17:59:37.283Z,37.90
2018-05-02T18:02:06.047Z,39.20
2018-05-02T18:04:34.055Z,38.20
2018-05-02T18:07:02.865Z,39.00
2018-05-02T18:09:31.676Z,38.60
2018-05-02T18:11:59.687Z,38.60
2018-05-02T18:14:27.704Z,38.90
2018-05-02T18:16:55.743Z,39.10
2018-05-02T18:19:23.794Z,40.00
2018-05-02T18:21:52.563Z,40.10
2018-05-02T18:24:20.566Z,40.00
2018-05-02T18:26:48.582Z,40.50
2018-05-02T18:29:16.571Z,41.20
2018-05-02T18:31:44.607Z,41.30
2018-05-02T18:34:12.606Z,41.40
2018-05-02T18:36:40.613Z,41.60
2018-05-02T18:39:08.632Z,42.50
2018-05-02T18:41:36.666Z,42.50
2018-05-02T18:44:05.488Z,42.50
2018-05-02T18:46:33.516Z,42.40
2018-05-02T18:49:01.535Z,42.50
2018-05-02T18:51:29.620Z,42.40
2018-05-02T18:53:58.709Z,43.50
2018-05-02T18:56:26.909Z,43.40
2018-05-02T18:58:54.891Z,43.30
2018-05-02T19:01:23.752Z,43.70
2018-05-02T19:03:51.931Z,43.00
2018-05-02T19:06:19.867Z,43.20
2018-05-02T19:08:48.627Z,43.60
2018-05-02T19:11:17.264Z,43.40
2018-05-02T19:13:50.980Z,43.80
2018-05-02T19:16:19.765Z,44.30
2018-05-02T19:18:53.568Z,44.20
2018-05-02T19:21:22.380Z,44.90
2018-05-02T19:23:50.488Z,44.80
2018-05-02T19:26:24.404Z,44.60
2018-05-02T19:28:52.570Z,44.70
2018-05-02T19:31:27.016Z,46.10
2018-05-02T19:33:56.856Z,46.00
2018-05-02T19:36:25.125Z,46.80
2018-05-02T19:38:53.167Z,45.30
2018-05-02T19:41:26.930Z,45.30
2018-05-02T19:44:00.570Z,45.30
2018-05-02T19:46:29.342Z,45.10
2018-05-02T19:48:57.351Z,45.00
2018-05-02T19:51:31.703Z,45.90
2018-05-02T19:53:59.724Z,45.80
2018-05-02T19:56:27.732Z,46.10
2018-05-02T19:58:55.731Z,45.60
2018-05-02T20:01:29.399Z,46.00
2018-05-02T20:03:57.391Z,45.70
2018-05-02T20:06:25.505Z,46.10
2018-05-02T20:08:58.989Z,46.30
2018-05-02T20:11:32.754Z,46.80
2018-05-02T20:14:02.578Z,47.20
2018-05-02T20:16:30.611Z,47.30
2018-05-02T20:18:58.696Z,47.30
2018-05-02T20:21:26.735Z,47.60
2018-05-02T20:23:54.746Z,48.70
2018-05-02T20:26:22.939Z,48.00
2018-05-02T20:28:50.948Z,47.70
2018-05-02T20:31:18.943Z,47.80
2018-05-02T20:33:47.719Z,48.00
2018-05-02T20:36:15.711Z,48.00
2018-05-02T20:38:43.727Z,47.90
2018-05-02T20:41:11.738Z,47.60
2018-05-02T20:43:39.770Z,47.90
2018-05-02T20:46:07.800Z,47.90
2018-05-02T20:48:35.787Z,48.10
2018-05-02T20:51:03.815Z,48.00
2018-05-02T20:53:31.827Z,48.40
2018-05-02T20:55:59.839Z,48.20
2018-05-02T20:58:28.082Z,48.30
2018-05-02T21:00:56.090Z,48.60
2018-05-02T21:03:24.103Z,48.90
2018-05-02T21:05:52.127Z,48.50
2018-05-02T21:08:20.896Z,49.20
2018-05-02T21:10:48.895Z,49.00
2018-05-02T21:13:16.886Z,49.60
2018-05-02T21:15:44.891Z,48.70
2018-05-02T21:18:13.647Z,49.60
2018-05-02T21:20:41.639Z,49.60
2018-05-02T21:23:09.639Z,49.50
2018-05-02T21:25:38.411Z,49.50
2018-05-02T21:28:06.410Z,49.40
2018-05-02T21:30:34.419Z,49.40
2018-05-02T21:33:03.175Z,49.40
2018-05-02T21:35:31.182Z,49.40
2018-05-02T21:37:59.218Z,49.30
2018-05-02T21:40:27.223Z,49.70
2018-05-02T21:42:55.254Z,49.50
2018-05-02T21:45:24.037Z,50.10
2018-05-02T21:47:52.829Z,50.80
2018-05-02T21:50:20.816Z,50.60
2018-05-02T21:52:48.815Z,51.20
2018-05-02T21:55:17.575Z,50.80
2018-05-02T21:57:45.583Z,50.70
2018-05-02T22:00:14.358Z,50.20
2018-05-02T22:02:42.354Z,50.60
2018-05-02T22:05:10.371Z,50.50
2018-05-02T22:07:39.128Z,51.10
2018-05-02T22:10:07.128Z,50.90
2018-05-02T22:12:35.891Z,51.60
2018-05-02T22:15:03.899Z,51.50
2018-05-02T22:17:31.911Z,52.00
2018-05-02T22:20:00.701Z,52.20
2018-05-02T22:22:28.674Z,52.20
2018-05-02T22:24:57.036Z,52.20
2018-05-02T22:27:25.267Z,52.40
2018-05-02T22:29:54.055Z,52.70
2018-05-02T22:32:22.044Z,52.50
2018-05-02T22:34:50.047Z,52.80
2018-05-02T22:37:18.823Z,52.80
2018-05-02T22:39:46.803Z,52.70
2018-05-02T22:42:14.921Z,53.20
2018-05-02T22:44:43.671Z,53.40
2018-05-02T22:47:11.683Z,53.30
2018-05-02T22:49:40.438Z,54.10
2018-05-02T22:52:08.442Z,53.80
2018-05-02T22:54:36.446Z,53.90
2018-05-02T22:57:05.955Z,55.00
2018-05-02T22:59:33.953Z,54.30
2018-05-02T23:02:02.719Z,54.40
2018-05-02T23:04:30.722Z,54.30
2018-05-02T23:06:58.755Z,54.30
2018-05-02T23:09:26.759Z,53.20
2018-05-02T23:11:54.762Z,53.50
2018-05-02T23:14:22.763Z,53.10
2018-05-02T23:16:51.535Z,53.60
2018-05-02T23:19:19.527Z,53.00
2018-05-02T23:21:49.041Z,53.20
2018-05-02T23:24:17.046Z,53.10
2018-05-02T23:26:45.027Z,53.70
2018-05-02T23:29:13.878Z,53.90
2018-05-02T23:31:42.603Z,53.50
2018-05-02T23:34:10.614Z,53.50
2018-05-02T23:36:39.395Z,53.80
2018-05-02T23:39:07.401Z,53.80
2018-05-02T23:41:36.175Z,55.00
2018-05-02T23:44:04.178Z,54.20
2018-05-02T23:46:32.186Z,54.50
2018-05-02T23:49:01.012Z,54.30
2018-05-02T23:51:29.006Z,54.20
2018-05-02T23:53:57.031Z,54.90
2018-05-02T23:56:25.793Z,55.20
2018-05-02T23:58:53.795Z,55.00
